createdAt,value
2023-01-30T00:01:58.123Z,25.87
2023-01-30T00:04:26.106Z,26.33
2023-01-30T00:06:54.063Z,26.43
2023-01-30T00:09:21.942Z,23.37
2023-01-30T00:11:51.143Z,25.17
2023-01-30T00:14:19.008Z,26.67
2023-01-30T00:16:46.936Z,26.10
2023-01-30T00:19:14.908Z,24.50
2023-01-30T00:21:42.734Z,24.90
2023-01-30T00:24:10.784Z,24.63
2023-01-30T00:26:38.662Z,23.83
2023-01-30T00:29:08.197Z,26.17
2023-01-30T00:31:36.138Z,25.70
2023-01-30T00:34:04.157Z,25.97
2023-01-30T00:36:31.989Z,27.07
2023-01-30T00:39:00.103Z,25.10
2023-01-30T00:41:48.149Z,24.83
2023-01-30T00:44:34.975Z,25.67
2023-01-30T00:47:09.463Z,23.63
2023-01-30T00:49:38.251Z,26.30
2023-01-30T00:52:06.620Z,24.40
2023-01-30T00:54:34.705Z,26.03
2023-01-30T00:57:02.538Z,26.03
2023-01-30T00:59:31.942Z,25.43
2023-01-30T01:02:00.020Z,25.53
2023-01-30T01:04:28.082Z,25.80
2023-01-30T01:06:55.944Z,26.37
2023-01-30T01:09:23.738Z,24.40
2023-01-30T01:11:51.782Z,26.70
2023-01-30T01:14:20.373Z,26.83
2023-01-30T01:16:49.854Z,22.30
2023-01-30T01:19:17.779Z,25.97
2023-01-30T01:21:45.600Z,26.23
2023-01-30T01:24:15.446Z,27.30
2023-01-30T01:26:44.883Z,26.93
2023-01-30T01:29:14.309Z,27.73
2023-01-30T01:31:42.350Z,26.30
2023-01-30T01:34:12.039Z,26.07
2023-01-30T01:36:55.618Z,25.90
2023-01-30T01:39:24.254Z,25.50
2023-01-30T01:41:51.567Z,26.40
2023-01-30T01:44:19.444Z,25.40
2023-01-30T01:46:51.993Z,24.90
2023-01-30T01:49:25.458Z,25.83
2023-01-30T01:51:57.923Z,23.20
2023-01-30T01:54:32.375Z,24.70
2023-01-30T01:57:04.417Z,23.27
2023-01-30T01:59:36.329Z,23.80
2023-01-30T02:02:08.873Z,21.97
2023-01-30T02:04:58.726Z,23.33
2023-01-30T02:07:27.275Z,22.63
2023-01-30T02:09:55.124Z,21.87
2023-01-30T02:12:23.062Z,21.27
2023-01-30T02:14:51.559Z,21.33
2023-01-30T02:17:19.419Z,22.33
2023-01-30T02:19:55.351Z,21.47
2023-01-30T02:22:38.392Z,20.90
2023-01-30T02:25:35.786Z,19.83
2023-01-30T02:28:30.338Z,19.97
2023-01-30T02:31:15.295Z,17.70
2023-01-30T02:33:53.238Z,17.70
2023-01-30T02:36:29.928Z,18.43
2023-01-30T02:39:07.567Z,17.90
2023-01-30T02:41:42.355Z,17.87
2023-01-30T02:44:15.701Z,17.57
2023-01-30T02:46:54.692Z,17.60
2023-01-30T02:49:28.819Z,16.57
2023-01-30T02:51:59.041Z,17.00
2023-01-30T02:54:27.553Z,16.47
2023-01-30T02:56:58.523Z,16.20
2023-01-30T02:59:31.362Z,17.93
2023-01-30T03:02:16.845Z,16.93
2023-01-30T03:05:02.475Z,15.17
2023-01-30T03:07:43.109Z,16.60
2023-01-30T03:10:20.043Z,15.37
2023-01-30T03:13:00.964Z,15.10
2023-01-30T03:15:34.900Z,16.43
2023-01-30T03:18:04.967Z,15.60
2023-01-30T03:20:38.295Z,14.67
2023-01-30T03:23:06.912Z,15.53
2023-01-30T03:25:39.117Z,14.40
2023-01-30T03:28:09.082Z,13.53
2023-01-30T03:30:37.343Z,13.53
2023-01-30T03:33:10.703Z,13.70
2023-01-30T03:35:41.190Z,13.73
2023-01-30T03:38:10.548Z,13.17
2023-01-30T03:40:38.852Z,12.70
2023-01-30T03:43:06.674Z,12.37
2023-01-30T03:45:37.131Z,12.67
2023-01-30T03:48:05.327Z,11.73
2023-01-30T03:50:35.056Z,11.90
2023-01-30T03:53:03.131Z,10.80
2023-01-30T03:55:30.985Z,10.87
2023-01-30T03:57:59.230Z,10.13
2023-01-30T04:00:30.415Z,9.03
2023-01-30T04:02:58.973Z,9.50
2023-01-30T04:05:27.011Z,10.10
2023-01-30T04:08:01.589Z,7.90
2023-01-30T04:10:29.803Z,6.50
2023-01-30T04:12:58.402Z,6.00
2023-01-30T04:15:26.388Z,4.07
2023-01-30T04:18:14.594Z,4.83
2023-01-30T04:20:54.992Z,3.83
2023-01-30T04:23:32.013Z,2.73
2023-01-30T04:25:59.993Z,2.30
2023-01-30T04:28:28.674Z,2.03
2023-01-30T04:30:58.216Z,2.10
2023-01-30T04:33:44.299Z,1.60
2023-01-30T04:36:13.827Z,1.60
2023-01-30T04:38:44.174Z,1.33
2023-01-30T04:41:12.219Z,1.77
2023-01-30T04:43:43.000Z,1.43
2023-01-30T04:46:26.301Z,1.30
2023-01-30T04:48:54.334Z,1.20
2023-01-30T04:51:22.220Z,1.57
2023-01-30T04:53:51.552Z,1.47
2023-01-30T04:56:20.244Z,1.90
2023-01-30T04:58:50.344Z,1.57
2023-01-30T05:01:24.149Z,1.37
2023-01-30T05:03:53.135Z,1.70
2023-01-30T05:06:21.062Z,1.40
2023-01-30T05:08:51.108Z,1.43
2023-01-30T05:11:19.930Z,1.50
2023-01-30T05:13:47.826Z,1.53
2023-01-30T05:16:16.796Z,1.47
2023-01-30T05:18:45.270Z,1.43
2023-01-30T05:21:15.706Z,1.30
2023-01-30T05:23:43.635Z,1.87
2023-01-30T05:26:13.561Z,1.60
2023-01-30T05:28:42.222Z,1.70
2023-01-30T05:31:12.920Z,1.73
2023-01-30T05:33:41.630Z,1.70
2023-01-30T05:36:14.743Z,1.60
2023-01-30T05:38:43.954Z,1.60
2023-01-30T05:41:14.754Z,1.57
2023-01-30T05:43:43.199Z,1.90
2023-01-30T05:46:13.114Z,1.90
2023-01-30T05:48:41.782Z,2.17
2023-01-30T05:51:17.324Z,2.27
2023-01-30T05:53:45.227Z,2.20
2023-01-30T05:56:14.493Z,2.07
2023-01-30T05:58:42.626Z,1.77
2023-01-30T06:01:13.917Z,2.30
2023-01-30T06:03:41.882Z,2.37
2023-01-30T06:06:11.156Z,2.23
2023-01-30T06:08:39.239Z,2.50
2023-01-30T06:11:09.772Z,2.47
2023-01-30T06:13:39.467Z,2.77
2023-01-30T06:16:08.374Z,2.40
2023-01-30T06:18:36.729Z,2.63
2023-01-30T06:21:04.901Z,2.40
2023-01-30T06:23:32.987Z,2.80
2023-01-30T06:26:03.285Z,2.20
2023-01-30T06:28:31.515Z,2.47
2023-01-30T06:31:00.771Z,2.53
2023-01-30T06:33:28.791Z,2.53
2023-01-30T06:35:56.759Z,2.57
2023-01-30T06:38:26.090Z,2.40
2023-01-30T06:40:54.152Z,3.30
2023-01-30T06:43:22.382Z,2.43
2023-01-30T06:45:50.267Z,2.80
2023-01-30T06:48:19.519Z,3.93
2023-01-30T06:50:48.345Z,2.47
2023-01-30T06:53:16.292Z,2.90
2023-01-30T06:55:44.148Z,2.63
2023-01-30T06:58:14.050Z,2.57
2023-01-30T07:00:44.330Z,2.60
2023-01-30T07:03:12.988Z,2.97
2023-01-30T07:05:42.802Z,3.03
2023-01-30T07:08:10.980Z,2.10
2023-01-30T07:10:39.638Z,2.77
2023-01-30T07:13:07.673Z,2.40
2023-01-30T07:15:35.630Z,2.23
2023-01-30T07:18:03.535Z,2.40
2023-01-30T07:20:31.475Z,2.43
2023-01-30T07:23:00.801Z,1.80
2023-01-30T07:25:29.987Z,2.30
2023-01-30T07:27:59.572Z,2.73
2023-01-30T07:30:28.440Z,2.10
2023-01-30T07:32:58.502Z,2.17
2023-01-30T07:35:28.444Z,2.50
2023-01-30T07:37:56.591Z,2.70
2023-01-30T07:40:25.853Z,2.87
2023-01-30T07:43:01.215Z,2.50
2023-01-30T07:45:32.465Z,2.40
2023-01-30T07:48:00.330Z,2.27
2023-01-30T07:50:28.241Z,2.70
2023-01-30T07:52:56.173Z,2.60
2023-01-30T07:55:25.564Z,2.33
2023-01-30T07:57:53.462Z,2.70
2023-01-30T08:00:21.738Z,2.40
2023-01-30T08:02:49.796Z,2.70
2023-01-30T08:05:17.847Z,2.97
2023-01-30T08:07:47.293Z,2.50
2023-01-30T08:10:16.395Z,2.50
2023-01-30T08:12:46.165Z,2.90
2023-01-30T08:15:14.089Z,4.17
2023-01-30T08:17:41.969Z,2.23
2023-01-30T08:20:11.260Z,2.40
2023-01-30T08:22:39.107Z,2.50
2023-01-30T08:25:08.268Z,2.63
2023-01-30T08:27:36.116Z,2.00
2023-01-30T08:30:06.157Z,3.43
2023-01-30T08:32:34.530Z,3.57
2023-01-30T08:35:02.436Z,2.77
2023-01-30T08:37:30.299Z,3.23
2023-01-30T08:39:58.124Z,3.40
2023-01-30T08:42:26.415Z,2.93
2023-01-30T08:44:54.286Z,3.90
2023-01-30T08:47:23.568Z,3.17
2023-01-30T08:49:52.800Z,3.67
2023-01-30T08:52:20.854Z,3.10
2023-01-30T08:54:48.806Z,3.60
2023-01-30T08:57:17.558Z,4.00
2023-01-30T08:59:45.749Z,3.57
2023-01-30T09:02:14.369Z,3.90
2023-01-30T09:04:43.591Z,4.37
2023-01-30T09:07:11.581Z,3.93
2023-01-30T09:09:39.408Z,5.33
2023-01-30T09:12:07.332Z,4.37
2023-01-30T09:14:35.193Z,3.67
2023-01-30T09:17:03.115Z,4.67
2023-01-30T09:19:31.537Z,3.70
2023-01-30T09:22:00.773Z,4.50
2023-01-30T09:24:28.633Z,4.23
2023-01-30T09:26:58.873Z,4.53
2023-01-30T09:29:28.523Z,3.97
2023-01-30T09:31:57.689Z,4.57
2023-01-30T09:34:27.540Z,4.17
2023-01-30T09:36:55.814Z,4.07
2023-01-30T09:39:25.018Z,4.13
2023-01-30T09:42:11.026Z,3.60
2023-01-30T09:44:58.874Z,3.40
2023-01-30T09:47:38.515Z,2.90
2023-01-30T09:50:20.904Z,2.50
2023-01-30T09:52:57.097Z,3.90
2023-01-30T09:55:29.131Z,3.20
2023-01-30T09:57:59.077Z,3.23
2023-01-30T10:00:33.227Z,2.43
2023-01-30T10:03:10.810Z,3.60
2023-01-30T10:05:44.653Z,3.10
2023-01-30T10:08:36.776Z,2.87
2023-01-30T10:11:18.876Z,3.70
2023-01-30T10:14:08.604Z,3.10
2023-01-30T10:16:44.364Z,3.53
2023-01-30T10:19:36.184Z,3.33
2023-01-30T10:22:18.162Z,2.70
2023-01-30T10:25:00.220Z,3.20
2023-01-30T10:27:31.564Z,3.93
2023-01-30T10:30:02.555Z,4.00
2023-01-30T10:32:33.802Z,3.03
2023-01-30T10:35:08.531Z,2.80
2023-01-30T10:37:45.695Z,2.90
2023-01-30T10:40:22.525Z,2.63
2023-01-30T10:42:58.903Z,2.60
2023-01-30T10:45:36.657Z,2.43
2023-01-30T10:48:23.270Z,2.80
2023-01-30T10:50:57.376Z,2.57
2023-01-30T10:53:33.719Z,3.57
2023-01-30T10:56:09.577Z,3.07
2023-01-30T10:58:48.352Z,3.37
2023-01-30T11:01:24.981Z,3.60
2023-01-30T11:03:57.359Z,3.13
2023-01-30T11:06:26.694Z,2.33
2023-01-30T11:08:55.541Z,1.37
2023-01-30T11:11:30.229Z,0.97
2023-01-30T11:14:05.823Z,1.07
2023-01-30T11:16:38.482Z,1.10
2023-01-30T11:19:19.635Z,1.10
2023-01-30T11:21:51.481Z,0.93
2023-01-30T11:24:21.449Z,1.47
2023-01-30T11:26:49.404Z,1.30
2023-01-30T11:29:28.313Z,1.03
2023-01-30T11:31:57.239Z,1.07
2023-01-30T11:34:26.118Z,1.90
2023-01-30T11:36:54.170Z,1.30
2023-01-30T11:39:24.811Z,1.20
2023-01-30T11:42:03.820Z,1.13
2023-01-30T11:44:35.069Z,1.00
2023-01-30T11:47:07.694Z,1.40
2023-01-30T11:49:48.163Z,1.67
2023-01-30T11:52:31.629Z,1.17
2023-01-30T11:55:05.419Z,1.50
2023-01-30T11:57:41.681Z,1.93
2023-01-30T12:00:21.597Z,1.70
2023-01-30T12:02:51.048Z,1.83
2023-01-30T12:05:25.672Z,1.80
2023-01-30T12:07:54.178Z,1.70
2023-01-30T12:10:31.518Z,2.20
2023-01-30T12:13:03.944Z,1.67
2023-01-30T12:15:35.130Z,2.67
2023-01-30T12:18:11.664Z,1.93
2023-01-30T12:20:50.174Z,2.43
2023-01-30T12:23:24.750Z,2.13
2023-01-30T12:26:00.715Z,1.70
2023-01-30T12:28:34.597Z,1.27
2023-01-30T12:31:10.416Z,0.90
2023-01-30T12:33:38.342Z,1.63
2023-01-30T12:36:17.705Z,1.03
2023-01-30T12:38:57.700Z,1.10
2023-01-30T12:41:40.416Z,1.30
2023-01-30T12:44:31.598Z,1.10
2023-01-30T12:47:20.803Z,1.20
2023-01-30T12:50:13.027Z,1.20
2023-01-30T12:53:13.744Z,1.40
2023-01-30T12:55:50.429Z,1.20
2023-01-30T12:58:22.519Z,1.17
2023-01-30T13:01:03.982Z,1.37
2023-01-30T13:03:42.473Z,1.70
2023-01-30T13:06:25.136Z,2.37
2023-01-30T13:09:05.113Z,1.37
2023-01-30T13:11:45.018Z,1.67
2023-01-30T13:14:21.598Z,1.80
2023-01-30T13:17:06.886Z,2.50
2023-01-30T13:19:43.091Z,1.93
2023-01-30T13:22:18.451Z,1.90
2023-01-30T13:24:58.486Z,2.33
2023-01-30T13:27:27.947Z,2.27
2023-01-30T13:29:56.276Z,1.90
2023-01-30T13:32:35.909Z,1.87
2023-01-30T13:35:16.213Z,2.70
2023-01-30T13:37:48.303Z,2.00
2023-01-30T13:40:19.744Z,2.60
2023-01-30T13:42:52.224Z,2.83
2023-01-30T13:45:23.295Z,2.37
2023-01-30T13:48:05.771Z,2.97
2023-01-30T13:50:48.911Z,3.27
2023-01-30T13:53:23.594Z,2.47
2023-01-30T13:55:57.987Z,3.17
2023-01-30T13:58:45.071Z,3.70
2023-01-30T14:01:14.825Z,2.87
2023-01-30T14:03:43.950Z,2.10
2023-01-30T14:06:32.685Z,2.90
2023-01-30T14:09:03.903Z,2.77
2023-01-30T14:11:42.116Z,3.23
2023-01-30T14:14:27.596Z,3.40
2023-01-30T14:16:57.363Z,3.20
2023-01-30T14:19:34.819Z,2.60
2023-01-30T14:22:17.383Z,4.30
2023-01-30T14:24:45.297Z,3.23
2023-01-30T14:27:31.899Z,3.73
2023-01-30T14:30:00.053Z,2.90
2023-01-30T14:32:56.147Z,3.37
2023-01-30T14:35:26.609Z,3.13
2023-01-30T14:38:11.651Z,3.67
2023-01-30T14:41:04.912Z,3.10
2023-01-30T14:43:52.314Z,3.30
2023-01-30T14:46:54.725Z,2.93
2023-01-30T14:49:29.043Z,3.70
2023-01-30T14:51:57.541Z,2.97
2023-01-30T14:54:41.169Z,3.37
2023-01-30T14:57:20.754Z,2.80
2023-01-30T15:00:12.131Z,2.50
2023-01-30T15:02:44.550Z,2.47
2023-01-30T15:05:15.862Z,2.67
2023-01-30T15:07:46.644Z,2.87
2023-01-30T15:10:45.768Z,3.70
2023-01-30T15:13:45.571Z,3.80
2023-01-30T15:16:28.859Z,3.40
2023-01-30T15:19:09.245Z,2.93
2023-01-30T15:21:49.613Z,2.03
2023-01-30T15:24:31.349Z,3.33
2023-01-30T15:27:08.150Z,3.20
2023-01-30T15:30:01.894Z,3.57
2023-01-30T15:32:31.936Z,3.60
2023-01-30T15:35:01.611Z,3.13
2023-01-30T15:37:35.749Z,3.93
2023-01-30T15:40:21.504Z,3.23
2023-01-30T15:42:54.140Z,3.40
2023-01-30T15:45:34.094Z,3.60
2023-01-30T15:48:38.533Z,3.50
2023-01-30T15:51:06.755Z,7.73
2023-01-30T15:53:41.082Z,3.07
2023-01-30T15:56:11.929Z,4.53
2023-01-30T15:58:45.223Z,3.90
2023-01-30T16:01:18.384Z,3.83
2023-01-30T16:03:46.510Z,4.40
2023-01-30T16:06:29.742Z,4.13
2023-01-30T16:09:00.566Z,4.03
2023-01-30T16:11:36.349Z,4.17
2023-01-30T16:14:07.586Z,3.63
2023-01-30T16:16:36.802Z,3.13
2023-01-30T16:19:08.937Z,3.40
2023-01-30T16:21:39.961Z,3.03
2023-01-30T16:24:17.456Z,3.30
2023-01-30T16:26:49.502Z,3.43
2023-01-30T16:29:21.415Z,3.60
2023-01-30T16:31:50.679Z,3.30
2023-01-30T16:34:27.957Z,3.50
2023-01-30T16:36:56.619Z,5.03
2023-01-30T16:39:29.887Z,5.60
2023-01-30T16:41:59.673Z,4.23
2023-01-30T16:44:30.241Z,5.10
2023-01-30T16:47:03.705Z,5.07
2023-01-30T16:49:43.523Z,4.17
2023-01-30T16:52:24.386Z,3.97
2023-01-30T16:54:54.830Z,3.83
2023-01-30T16:57:35.813Z,3.87
2023-01-30T17:00:10.014Z,3.70
2023-01-30T17:02:42.270Z,3.57
2023-01-30T17:05:18.667Z,3.33
2023-01-30T17:07:47.768Z,3.23
2023-01-30T17:10:53.286Z,3.53
2023-01-30T17:13:41.484Z,4.03
2023-01-30T17:16:33.436Z,3.93
2023-01-30T17:19:01.850Z,3.97
2023-01-30T17:21:32.489Z,3.63
2023-01-30T17:24:03.231Z,2.60
2023-01-30T17:26:33.112Z,3.00
2023-01-30T17:29:00.905Z,3.47
2023-01-30T17:31:31.242Z,4.67
2023-01-30T17:33:59.146Z,4.03
2023-01-30T17:36:29.415Z,3.73
2023-01-30T17:39:00.340Z,3.23
2023-01-30T17:41:30.846Z,3.30
2023-01-30T17:43:59.003Z,3.23
2023-01-30T17:46:36.256Z,3.10
2023-01-30T17:49:04.541Z,3.07
2023-01-30T17:51:32.407Z,2.93
2023-01-30T17:54:01.204Z,2.63
2023-01-30T17:56:34.824Z,3.10
2023-01-30T17:59:05.110Z,4.00
2023-01-30T18:01:34.311Z,2.40
2023-01-30T18:04:02.760Z,3.00
2023-01-30T18:06:31.957Z,3.00
2023-01-30T18:08:59.879Z,3.03
2023-01-30T18:11:27.882Z,2.90
2023-01-30T18:13:55.988Z,3.50
2023-01-30T18:16:28.553Z,2.90
2023-01-30T18:18:59.115Z,2.07
2023-01-30T18:21:27.377Z,2.60
2023-01-30T18:23:55.265Z,2.83
2023-01-30T18:26:24.803Z,1.80
2023-01-30T18:28:53.372Z,2.10
2023-01-30T18:31:23.756Z,2.23
2023-01-30T18:33:52.225Z,2.23
2023-01-30T18:36:21.885Z,2.80
2023-01-30T18:38:50.239Z,3.13
2023-01-30T18:41:20.338Z,3.80
2023-01-30T18:43:49.380Z,3.27
2023-01-30T18:46:18.887Z,3.03
2023-01-30T18:48:47.876Z,3.30
2023-01-30T18:51:18.737Z,3.10
2023-01-30T18:53:49.360Z,3.23
2023-01-30T18:56:19.288Z,3.63
2023-01-30T18:58:49.531Z,4.07
2023-01-30T19:01:19.417Z,4.07
2023-01-30T19:03:47.472Z,3.30
2023-01-30T19:06:18.177Z,3.30
2023-01-30T19:08:47.419Z,3.60
2023-01-30T19:11:34.394Z,3.50
2023-01-30T19:14:03.314Z,3.40
2023-01-30T19:16:33.224Z,3.10
2023-01-30T19:19:01.768Z,3.30
2023-01-30T19:21:30.111Z,4.53
2023-01-30T19:23:59.613Z,3.23
2023-01-30T19:26:30.393Z,2.53
2023-01-30T19:28:58.904Z,3.10
2023-01-30T19:31:26.912Z,2.33
2023-01-30T19:33:56.508Z,2.80
2023-01-30T19:36:26.644Z,3.67
2023-01-30T19:38:54.892Z,3.63
2023-01-30T19:41:27.286Z,4.27
2023-01-30T19:43:56.696Z,4.07
2023-01-30T19:46:25.240Z,3.97
2023-01-30T19:48:53.632Z,2.17
2023-01-30T19:51:23.090Z,3.53
2023-01-30T19:53:52.983Z,3.90
2023-01-30T19:56:22.437Z,3.17
2023-01-30T19:58:52.932Z,3.43
2023-01-30T20:01:22.839Z,3.50
2023-01-30T20:03:51.022Z,2.57
2023-01-30T20:06:20.424Z,2.10
2023-01-30T20:08:50.198Z,2.53
2023-01-30T20:11:21.711Z,2.87
2023-01-30T20:13:51.646Z,3.23
2023-01-30T20:16:21.520Z,2.70
2023-01-30T20:18:54.523Z,2.57
2023-01-30T20:21:23.170Z,2.50
2023-01-30T20:23:51.503Z,2.70
2023-01-30T20:26:21.392Z,2.80
2023-01-30T20:28:51.631Z,2.50
2023-01-30T20:31:21.514Z,2.20
2023-01-30T20:33:49.927Z,3.37
2023-01-30T20:36:20.068Z,3.10
2023-01-30T20:38:49.489Z,2.90
2023-01-30T20:41:18.897Z,2.90
2023-01-30T20:43:49.053Z,2.90
2023-01-30T20:46:20.401Z,3.00
2023-01-30T20:48:48.642Z,3.27
2023-01-30T20:51:18.718Z,3.00
2023-01-30T20:53:51.696Z,2.97
2023-01-30T20:56:20.399Z,2.97
2023-01-30T20:58:48.472Z,3.57
2023-01-30T21:01:18.633Z,2.97
2023-01-30T21:03:50.485Z,2.53
2023-01-30T21:06:42.820Z,2.57
2023-01-30T21:09:08.915Z,2.53
2023-01-30T21:11:37.085Z,2.83
2023-01-30T21:14:05.227Z,3.00
2023-01-30T21:16:37.035Z,3.37
2023-01-30T21:19:08.720Z,3.10
2023-01-30T21:21:39.343Z,2.83
2023-01-30T21:24:10.070Z,3.00
2023-01-30T21:26:40.223Z,3.57
2023-01-30T21:29:09.410Z,3.10
2023-01-30T21:31:38.013Z,2.90
2023-01-30T21:34:08.037Z,2.50
2023-01-30T21:36:36.748Z,2.70
2023-01-30T21:39:22.406Z,2.67
2023-01-30T21:42:07.739Z,2.33
2023-01-30T21:44:38.086Z,2.00
2023-01-30T21:47:08.605Z,2.57
2023-01-30T21:49:38.021Z,1.87
2023-01-30T21:52:06.031Z,2.07
2023-01-30T21:54:33.858Z,2.17
2023-01-30T21:57:02.406Z,2.10
2023-01-30T21:59:31.370Z,2.00
2023-01-30T22:01:59.317Z,1.93
2023-01-30T22:04:27.161Z,2.27
2023-01-30T22:06:56.540Z,3.13
2023-01-30T22:09:24.391Z,2.47
2023-01-30T22:11:52.384Z,1.87
2023-01-30T22:14:20.267Z,1.80
2023-01-30T22:16:48.136Z,2.70
2023-01-30T22:19:16.161Z,2.77
2023-01-30T22:21:44.028Z,3.37
2023-01-30T22:24:13.263Z,2.60
2023-01-30T22:26:41.119Z,2.40
2023-01-30T22:29:09.132Z,2.40
2023-01-30T22:31:40.335Z,2.67
2023-01-30T22:34:08.884Z,2.20
2023-01-30T22:36:37.513Z,2.47
2023-01-30T22:39:06.467Z,2.83
2023-01-30T22:41:36.451Z,2.53
2023-01-30T22:44:07.263Z,2.33
2023-01-30T22:46:37.401Z,2.57
2023-01-30T22:49:06.885Z,2.23
2023-01-30T22:51:37.057Z,3.53
2023-01-30T22:54:06.747Z,2.13
2023-01-30T22:56:40.750Z,2.20
2023-01-30T22:59:09.604Z,2.50
2023-01-30T23:01:39.390Z,2.03
2023-01-30T23:04:11.026Z,2.37
2023-01-30T23:06:39.247Z,1.80
2023-01-30T23:09:08.832Z,2.50
2023-01-30T23:11:40.834Z,2.13
2023-01-30T23:14:12.110Z,2.00
2023-01-30T23:16:45.037Z,2.40
2023-01-30T23:19:13.472Z,2.73
2023-01-30T23:21:43.530Z,2.50
2023-01-30T23:24:13.669Z,2.40
2023-01-30T23:26:45.053Z,2.50
2023-01-30T23:29:15.016Z,2.20
2023-01-30T23:31:44.458Z,1.80
2023-01-30T23:34:15.904Z,2.47
2023-01-30T23:36:44.945Z,2.03
2023-01-30T23:39:13.822Z,1.70
2023-01-30T23:41:44.242Z,2.00
2023-01-30T23:44:12.620Z,1.87
2023-01-30T23:46:43.066Z,2.10
2023-01-30T23:49:12.467Z,2.20
2023-01-30T23:51:41.717Z,2.63
2023-01-30T23:54:10.556Z,2.30
2023-01-30T23:56:42.109Z,2.33
2023-01-30T23:59:11.931Z,2.33
